Time;durP1;ratioP1;P1;durP2;ratioP2;P2;SDS_P1;SDS_P2;PMS_P1;PMS_P2;Temp;Humidity;BMP_temperature;BMP_pressure;BME280_temperature;BME280_humidity;BME280_pressure;Samples;Min_cycle;Max_cycle;Signal;HPM_P1;HPM_P2
2023/03/07 00:01:37;;;;;;;6.43;5.68;;;;;;;;;;5095459;28;20204;-66
2023/03/07 00:04:04;;;;;;;6.75;5.57;;;;;;;;;;5095378;28;20243;-66
2023/03/07 00:06:32;;;;;;;7.53;6.05;;;;;;;;;;5095389;28;20293;-64
2023/03/07 00:09:00;;;;;;;7.03;5.88;;;;;;;;;;5095153;28;20646;-65
2023/03/07 00:11:27;;;;;;;6.95;5.45;;;;;;;;;;5095033;28;20194;-64
2023/03/07 00:13:55;;;;;;;6.55;5.88;;;;;;;;;;5094951;28;20189;-64
2023/03/07 00:16:23;;;;;;;6.60;5.40;;;;;;;;;;5094975;28;20314;-65
2023/03/07 00:18:51;;;;;;;7.50;6.20;;;;;;;;;;5094719;28;20214;-65
2023/03/07 00:21:20;;;;;;;8.40;6.82;;;;;;;;;;5095030;28;20186;-65
2023/03/07 00:23:47;;;;;;;7.65;6.85;;;;;;;;;;5094801;28;20238;-65
2023/03/07 00:26:15;;;;;;;7.38;6.68;;;;;;;;;;5094650;28;20194;-66
2023/03/07 00:28:42;;;;;;;8.57;6.85;;;;;;;;;;5094565;28;20192;-67
2023/03/07 00:31:10;;;;;;;8.05;6.80;;;;;;;;;;5093790;28;20199;-65
2023/03/07 00:33:38;;;;;;;8.90;6.90;;;;;;;;;;5094765;28;20197;-65
2023/03/07 00:36:08;;;;;;;8.30;7.40;;;;;;;;;;5094590;28;20194;-64
2023/03/07 00:38:35;;;;;;;9.50;7.13;;;;;;;;;;5094328;28;20389;-65
2023/03/07 00:41:04;;;;;;;9.10;6.90;;;;;;;;;;5094397;28;20187;-65
2023/03/07 00:43:31;;;;;;;10.63;7.07;;;;;;;;;;5094539;28;20189;-65
2023/03/07 00:45:59;;;;;;;7.97;6.35;;;;;;;;;;5094477;28;20187;-65
2023/03/07 00:48:27;;;;;;;10.60;7.88;;;;;;;;;;5094263;28;20190;-65
2023/03/07 00:50:54;;;;;;;9.98;8.35;;;;;;;;;;5094342;28;20236;-65
2023/03/07 00:53:23;;;;;;;9.50;7.93;;;;;;;;;;5094212;28;20244;-65
2023/03/07 00:55:54;;;;;;;10.88;8.20;;;;;;;;;;5094070;28;20191;-65
2023/03/07 00:58:21;;;;;;;10.45;8.18;;;;;;;;;;5094158;28;20216;-65
2023/03/07 01:00:48;;;;;;;10.73;8.02;;;;;;;;;;5094168;28;20531;-65
2023/03/07 01:03:15;;;;;;;14.43;9.63;;;;;;;;;;5094147;28;20493;-65
2023/03/07 01:05:42;;;;;;;14.40;9.48;;;;;;;;;;5093959;28;20220;-65
2023/03/07 01:08:09;;;;;;;12.15;8.80;;;;;;;;;;5093914;28;20287;-65
2023/03/07 01:10:37;;;;;;;14.48;9.50;;;;;;;;;;5094055;28;20241;-65
2023/03/07 01:13:05;;;;;;;14.55;9.20;;;;;;;;;;5093978;28;20188;-65
2023/03/07 01:15:32;;;;;;;13.50;8.60;;;;;;;;;;5093919;28;20229;-65
2023/03/07 01:17:59;;;;;;;13.60;10.02;;;;;;;;;;5093572;28;20304;-65
2023/03/07 01:20:26;;;;;;;15.45;9.38;;;;;;;;;;5093742;28;20277;-65
2023/03/07 01:22:53;;;;;;;15.50;11.02;;;;;;;;;;5093986;28;20192;-65
2023/03/07 01:25:20;;;;;;;15.52;10.27;;;;;;;;;;5093920;28;20614;-65
2023/03/07 01:27:49;;;;;;;13.10;9.45;;;;;;;;;;5093586;28;20190;-65
2023/03/07 01:30:16;;;;;;;18.02;12.50;;;;;;;;;;5093629;28;20223;-65
2023/03/07 01:32:43;;;;;;;15.90;10.90;;;;;;;;;;5093547;28;20236;-65
2023/03/07 01:35:10;;;;;;;20.33;11.55;;;;;;;;;;5093880;28;20187;-66
2023/03/07 01:37:37;;;;;;;20.25;11.55;;;;;;;;;;5093419;28;20190;-66
2023/03/07 01:40:05;;;;;;;17.65;11.55;;;;;;;;;;5093353;28;20708;-65
2023/03/07 01:42:32;;;;;;;14.73;10.10;;;;;;;;;;5093098;28;20187;-65
2023/03/07 01:45:02;;;;;;;18.52;12.73;;;;;;;;;;5093456;28;20228;-65
2023/03/07 01:47:29;;;;;;;18.27;12.27;;;;;;;;;;5093371;28;20250;-65
2023/03/07 01:49:57;;;;;;;20.40;12.65;;;;;;;;;;5093456;28;20192;-65
2023/03/07 01:52:30;;;;;;;20.83;13.00;;;;;;;;;;5093386;28;20197;-65
2023/03/07 01:55:00;;;;;;;15.65;10.70;;;;;;;;;;5093380;28;20189;-64
2023/03/07 01:57:30;;;;;;;22.95;13.60;;;;;;;;;;5093554;28;20286;-65
2023/03/07 02:00:00;;;;;;;20.38;12.45;;;;;;;;;;5093013;28;20222;-66
2023/03/07 02:02:31;;;;;;;21.83;13.45;;;;;;;;;;5093342;28;20194;-65
2023/03/07 02:05:02;;;;;;;24.20;14.65;;;;;;;;;;5093338;28;20622;-66
2023/03/07 02:07:32;;;;;;;23.80;13.43;;;;;;;;;;5092487;28;20189;-65
2023/03/07 02:09:59;;;;;;;21.98;14.95;;;;;;;;;;5092979;28;20281;-65
2023/03/07 02:12:26;;;;;;;26.70;15.52;;;;;;;;;;5092987;28;20197;-65
2023/03/07 02:14:53;;;;;;;23.75;15.45;;;;;;;;;;5092966;28;20226;-66
2023/03/07 02:17:20;;;;;;;27.05;17.25;;;;;;;;;;5092790;28;20281;-65
2023/03/07 02:19:59;;;;;;;24.25;16.08;;;;;;;;;;5092876;28;20665;-66
2023/03/07 02:22:27;;;;;;;25.95;15.85;;;;;;;;;;5093271;28;20198;-66
2023/03/07 02:24:56;;;;;;;24.63;16.15;;;;;;;;;;5092828;28;20198;-66
2023/03/07 02:27:25;;;;;;;25.75;16.65;;;;;;;;;;5093071;28;20191;-66
2023/03/07 02:29:53;;;;;;;28.80;16.73;;;;;;;;;;5093055;28;20207;-66
2023/03/07 02:32:20;;;;;;;27.33;16.65;;;;;;;;;;5092884;28;20282;-66
2023/03/07 02:34:47;;;;;;;26.25;16.50;;;;;;;;;;5092771;28;20651;-66
2023/03/07 02:37:17;;;;;;;22.90;15.45;;;;;;;;;;5092740;28;20241;-65
2023/03/07 02:39:44;;;;;;;24.98;16.40;;;;;;;;;;5093163;28;20791;-66
2023/03/07 02:42:13;;;;;;;25.90;16.95;;;;;;;;;;5092838;28;20213;-66
2023/03/07 02:44:44;;;;;;;27.75;17.13;;;;;;;;;;5092610;28;20252;-66
2023/03/07 02:47:11;;;;;;;29.33;17.55;;;;;;;;;;5092659;28;20225;-65
2023/03/07 02:49:38;;;;;;;27.02;17.23;;;;;;;;;;5092697;28;20198;-66
2023/03/07 02:52:05;;;;;;;26.77;17.35;;;;;;;;;;5092616;28;20202;-66
2023/03/07 02:54:32;;;;;;;31.92;19.40;;;;;;;;;;5094855;28;20624;-65
2023/03/07 02:56:59;;;;;;;27.80;18.13;;;;;;;;;;5096774;28;20593;-66
2023/03/07 02:59:27;;;;;;;29.65;20.15;;;;;;;;;;5096386;28;20307;-66
2023/03/07 03:01:55;;;;;;;31.05;18.73;;;;;;;;;;5096379;28;20637;-66
2023/03/07 03:04:22;;;;;;;26.25;17.02;;;;;;;;;;5096388;28;20229;-67
2023/03/07 03:06:49;;;;;;;29.73;19.35;;;;;;;;;;5096446;28;20224;-66
2023/03/07 03:09:16;;;;;;;31.05;19.58;;;;;;;;;;5096499;28;20599;-66
2023/03/07 03:11:43;;;;;;;31.30;18.65;;;;;;;;;;5096186;28;20240;-66
2023/03/07 03:14:10;;;;;;;28.70;18.98;;;;;;;;;;5096335;28;20191;-66
2023/03/07 03:16:38;;;;;;;30.58;19.40;;;;;;;;;;5095844;28;20300;-65
2023/03/07 03:19:07;;;;;;;36.35;21.17;;;;;;;;;;5095786;28;20221;-64
2023/03/07 03:21:34;;;;;;;30.75;20.33;;;;;;;;;;5096258;28;20307;-65
2023/03/07 03:24:04;;;;;;;30.67;18.80;;;;;;;;;;5096159;28;20243;-65
2023/03/07 03:26:31;;;;;;;32.67;21.05;;;;;;;;;;5096085;28;20194;-65
2023/03/07 03:28:58;;;;;;;30.63;19.35;;;;;;;;;;5095813;28;20194;-66
2023/03/07 03:31:27;;;;;;;29.00;18.95;;;;;;;;;;5095806;28;20556;-66
2023/03/07 03:33:54;;;;;;;31.58;19.13;;;;;;;;;;5095721;28;20665;-66
2023/03/07 03:36:24;;;;;;;32.28;20.98;;;;;;;;;;5095960;28;20249;-66
2023/03/07 03:38:52;;;;;;;33.80;20.85;;;;;;;;;;5095934;28;20216;-65
2023/03/07 03:41:19;;;;;;;35.85;20.08;;;;;;;;;;5095710;28;20276;-66
2023/03/07 03:43:46;;;;;;;42.58;20.95;;;;;;;;;;5095757;28;20203;-65
2023/03/07 03:46:18;;;;;;;31.42;19.42;;;;;;;;;;5095494;28;20554;-65
2023/03/07 03:48:45;;;;;;;32.03;19.52;;;;;;;;;;5095692;28;20206;-65
2023/03/07 03:51:14;;;;;;;31.35;19.27;;;;;;;;;;5095639;28;20281;-64
2023/03/07 03:53:42;;;;;;;26.92;17.35;;;;;;;;;;5095511;28;20191;-65
2023/03/07 03:56:14;;;;;;;32.60;18.23;;;;;;;;;;5095592;28;20191;-65
2023/03/07 03:58:41;;;;;;;30.67;18.77;;;;;;;;;;5095142;28;20193;-65
2023/03/07 04:01:10;;;;;;;30.55;18.10;;;;;;;;;;5095236;28;20254;-65
2023/03/07 04:03:38;;;;;;;33.22;19.33;;;;;;;;;;5095554;28;20598;-65
2023/03/07 04:06:07;;;;;;;27.70;18.38;;;;;;;;;;5095221;28;20645;-65
2023/03/07 04:08:34;;;;;;;33.42;18.88;;;;;;;;;;5095073;28;20192;-65
2023/03/07 04:11:03;;;;;;;33.78;20.30;;;;;;;;;;5095044;28;20581;-65
2023/03/07 04:13:30;;;;;;;30.67;18.50;;;;;;;;;;5095005;28;20231;-65
2023/03/07 04:15:57;;;;;;;27.30;17.90;;;;;;;;;;5094957;28;20682;-66
2023/03/07 04:18:25;;;;;;;31.70;19.60;;;;;;;;;;5095195;28;20635;-65
2023/03/07 04:20:53;;;;;;;28.75;19.20;;;;;;;;;;5094928;28;20269;-66
2023/03/07 04:23:20;;;;;;;29.15;18.13;;;;;;;;;;5094749;28;20196;-65
2023/03/07 04:25:48;;;;;;;31.02;19.23;;;;;;;;;;5094596;28;20191;-66
2023/03/07 04:28:17;;;;;;;30.13;18.33;;;;;;;;;;5094918;28;20196;-66
2023/03/07 04:30:44;;;;;;;30.15;18.80;;;;;;;;;;5095045;28;20196;-66
2023/03/07 04:33:11;;;;;;;28.27;17.73;;;;;;;;;;5094808;28;20213;-65
2023/03/07 04:35:38;;;;;;;28.83;18.13;;;;;;;;;;5094563;28;20187;-66
2023/03/07 04:38:06;;;;;;;28.50;18.52;;;;;;;;;;5094431;28;20785;-66
2023/03/07 04:40:34;;;;;;;31.48;19.85;;;;;;;;;;5094236;28;20718;-65
2023/03/07 04:43:01;;;;;;;28.50;17.90;;;;;;;;;;5094668;28;20283;-66
2023/03/07 04:45:30;;;;;;;25.73;15.82;;;;;;;;;;5094491;28;20258;-66
2023/03/07 04:47:57;;;;;;;33.17;18.67;;;;;;;;;;5094430;28;20214;-66
2023/03/07 04:50:24;;;;;;;24.38;16.33;;;;;;;;;;5094447;28;20588;-66
2023/03/07 04:52:52;;;;;;;29.15;17.35;;;;;;;;;;5094215;28;20194;-65
2023/03/07 04:55:19;;;;;;;26.05;17.38;;;;;;;;;;5094434;28;20244;-65
2023/03/07 04:57:46;;;;;;;26.80;17.50;;;;;;;;;;5094216;28;20600;-65
2023/03/07 05:00:14;;;;;;;25.60;17.08;;;;;;;;;;5094169;28;20217;-65
2023/03/07 05:02:43;;;;;;;28.83;18.38;;;;;;;;;;5094066;28;20187;-65
2023/03/07 05:05:11;;;;;;;27.27;17.05;;;;;;;;;;5094100;28;20185;-65
2023/03/07 05:07:38;;;;;;;29.40;17.70;;;;;;;;;;5093866;28;20195;-65
2023/03/07 05:10:05;;;;;;;25.35;17.35;;;;;;;;;;5094139;28;20199;-66
2023/03/07 05:12:32;;;;;;;31.23;17.45;;;;;;;;;;5093953;28;20194;-66
2023/03/07 05:15:00;;;;;;;27.75;17.50;;;;;;;;;;5093985;28;20290;-66
2023/03/07 05:17:27;;;;;;;24.55;15.68;;;;;;;;;;5093127;28;20226;-66
2023/03/07 05:19:56;;;;;;;24.85;16.95;;;;;;;;;;5093732;28;20220;-66
2023/03/07 05:22:23;;;;;;;26.92;16.85;;;;;;;;;;5093938;28;20187;-66
2023/03/07 05:24:50;;;;;;;24.90;16.00;;;;;;;;;;5093871;28;20199;-65
2023/03/07 05:27:17;;;;;;;28.63;18.35;;;;;;;;;;5093697;28;20609;-64
2023/03/07 05:29:44;;;;;;;24.88;15.23;;;;;;;;;;5093654;28;20197;-65
2023/03/07 05:32:12;;;;;;;24.83;17.50;;;;;;;;;;5093568;28;20219;-65
2023/03/07 05:34:44;;;;;;;25.85;17.67;;;;;;;;;;5093388;28;20282;-68
2023/03/07 05:37:12;;;;;;;23.73;16.45;;;;;;;;;;5093661;28;20195;-65
2023/03/07 05:39:39;;;;;;;26.15;16.77;;;;;;;;;;5093493;28;20267;-65
2023/03/07 05:42:06;;;;;;;27.98;18.60;;;;;;;;;;5093411;28;20226;-65
2023/03/07 05:44:33;;;;;;;29.20;18.20;;;;;;;;;;5093375;28;20191;-66
2023/03/07 05:47:00;;;;;;;27.27;17.38;;;;;;;;;;5093304;28;20562;-66
2023/03/07 05:49:27;;;;;;;27.85;17.60;;;;;;;;;;5093552;28;20199;-66
2023/03/07 05:51:54;;;;;;;26.67;17.75;;;;;;;;;;5093046;28;20261;-65
2023/03/07 05:54:23;;;;;;;26.38;17.23;;;;;;;;;;5093431;28;20247;-66
2023/03/07 05:56:50;;;;;;;26.38;17.40;;;;;;;;;;5093362;28;20190;-65
2023/03/07 05:59:17;;;;;;;29.77;18.67;;;;;;;;;;5093148;28;20195;-66
2023/03/07 06:01:44;;;;;;;26.08;17.75;;;;;;;;;;5093155;28;20680;-65
2023/03/07 06:04:11;;;;;;;26.63;17.65;;;;;;;;;;5093577;28;20186;-65
2023/03/07 06:06:38;;;;;;;24.92;16.63;;;;;;;;;;5093050;28;20187;-65
2023/03/07 06:09:06;;;;;;;25.73;16.85;;;;;;;;;;5093167;28;20290;-66
2023/03/07 06:11:34;;;;;;;27.77;19.42;;;;;;;;;;5093133;28;20190;-66
2023/03/07 06:14:01;;;;;;;23.85;16.48;;;;;;;;;;5093117;28;20286;-66
2023/03/07 06:16:28;;;;;;;26.55;17.45;;;;;;;;;;5092789;28;20310;-65
2023/03/07 06:18:55;;;;;;;25.25;17.83;;;;;;;;;;5092861;28;20198;-65
2023/03/07 06:21:22;;;;;;;24.05;16.88;;;;;;;;;;5093082;28;20271;-65
2023/03/07 06:23:49;;;;;;;25.05;16.52;;;;;;;;;;5093090;28;20665;-65
2023/03/07 06:26:17;;;;;;;29.08;17.95;;;;;;;;;;5092837;28;20194;-65
2023/03/07 06:28:45;;;;;;;25.20;16.80;;;;;;;;;;5093859;28;20282;-64
2023/03/07 06:31:13;;;;;;;27.23;18.00;;;;;;;;;;5097126;28;20201;-65
2023/03/07 06:33:40;;;;;;;23.35;16.25;;;;;;;;;;5097130;28;20295;-65
2023/03/07 06:36:08;;;;;;;24.83;16.55;;;;;;;;;;5096957;28;20191;-64
2023/03/07 06:38:38;;;;;;;27.25;17.80;;;;;;;;;;5096841;28;20278;-65
2023/03/07 06:41:05;;;;;;;26.92;17.40;;;;;;;;;;5096639;28;20219;-65
2023/03/07 06:43:33;;;;;;;27.60;18.33;;;;;;;;;;5097104;28;20222;-66
2023/03/07 06:46:01;;;;;;;25.90;16.63;;;;;;;;;;5097032;28;20199;-65
2023/03/07 06:48:28;;;;;;;31.20;18.10;;;;;;;;;;5096861;28;20196;-65
2023/03/07 06:50:56;;;;;;;25.15;17.08;;;;;;;;;;5096792;28;20195;-64
2023/03/07 06:53:23;;;;;;;25.95;17.23;;;;;;;;;;5096566;28;20193;-64
2023/03/07 06:55:50;;;;;;;24.95;16.83;;;;;;;;;;5096533;28;20225;-64
2023/03/07 06:58:18;;;;;;;23.88;16.63;;;;;;;;;;5096634;28;20199;-65
2023/03/07 07:00:46;;;;;;;23.27;16.15;;;;;;;;;;5096412;28;20697;-65
2023/03/07 07:03:15;;;;;;;24.08;16.02;;;;;;;;;;5096432;28;20193;-65
2023/03/07 07:05:43;;;;;;;24.42;17.13;;;;;;;;;;5096443;28;20274;-65
2023/03/07 07:08:10;;;;;;;26.30;17.13;;;;;;;;;;5096395;28;20558;-66
2023/03/07 07:10:37;;;;;;;25.90;16.60;;;;;;;;;;5096197;28;20195;-65
2023/03/07 07:13:04;;;;;;;24.33;16.50;;;;;;;;;;5096556;28;20204;-66
2023/03/07 07:15:32;;;;;;;23.20;15.45;;;;;;;;;;5096181;28;20204;-66
2023/03/07 07:17:59;;;;;;;30.45;16.50;;;;;;;;;;5095880;28;20227;-65
2023/03/07 07:20:27;;;;;;;22.75;15.52;;;;;;;;;;5096157;28;20635;-65
2023/03/07 07:22:54;;;;;;;25.02;16.55;;;;;;;;;;5095838;28;20197;-65
2023/03/07 07:25:21;;;;;;;22.08;15.20;;;;;;;;;;5096318;28;20618;-66
2023/03/07 07:27:51;;;;;;;24.15;15.57;;;;;;;;;;5096120;28;20188;-66
2023/03/07 07:30:18;;;;;;;24.30;15.60;;;;;;;;;;5096072;28;20193;-65
2023/03/07 07:32:45;;;;;;;23.80;16.17;;;;;;;;;;5095941;28;20285;-65
2023/03/07 07:35:12;;;;;;;25.77;14.98;;;;;;;;;;5095482;28;20203;-64
2023/03/07 07:37:41;;;;;;;24.08;16.48;;;;;;;;;;5095744;28;20193;-65
2023/03/07 07:40:10;;;;;;;23.45;16.20;;;;;;;;;;5095217;28;20233;-65
2023/03/07 07:42:37;;;;;;;23.30;15.43;;;;;;;;;;5095629;28;20227;-65
2023/03/07 07:45:04;;;;;;;20.80;15.20;;;;;;;;;;5095537;28;20195;-65
2023/03/07 07:47:32;;;;;;;20.38;14.15;;;;;;;;;;5095603;28;20562;-66
2023/03/07 07:49:59;;;;;;;24.17;14.85;;;;;;;;;;5095466;28;20246;-64
2023/03/07 07:52:26;;;;;;;22.42;16.20;;;;;;;;;;5095698;28;20633;-65
2023/03/07 07:54:54;;;;;;;17.10;14.50;;;;;;;;;;5095525;28;20186;-65
2023/03/07 07:57:21;;;;;;;19.63;13.68;;;;;;;;;;5095393;28;20190;-64
2023/03/07 07:59:48;;;;;;;22.23;14.68;;;;;;;;;;5095260;28;20186;-64
2023/03/07 08:02:16;;;;;;;19.02;14.52;;;;;;;;;;5095692;28;20253;-65
2023/03/07 08:04:44;;;;;;;23.20;14.15;;;;;;;;;;5095279;28;20290;-65
2023/03/07 08:07:12;;;;;;;19.63;13.48;;;;;;;;;;5095106;28;20221;-65
2023/03/07 08:09:40;;;;;;;19.33;13.25;;;;;;;;;;5095213;28;20237;-72
2023/03/07 08:12:09;;;;;;;19.95;13.30;;;;;;;;;;5094980;28;20199;-68
2023/03/07 08:14:37;;;;;;;18.08;12.93;;;;;;;;;;5095923;28;20197;-74
2023/03/07 08:17:05;;;;;;;17.33;13.00;;;;;;;;;;5096209;28;20251;-82
2023/03/07 08:19:33;;;;;;;19.42;13.13;;;;;;;;;;5096956;28;20199;-70
2023/03/07 08:22:00;;;;;;;16.90;11.80;;;;;;;;;;5096172;28;20254;-74
2023/03/07 08:24:27;;;;;;;17.08;12.00;;;;;;;;;;5094747;28;20196;-66
2023/03/07 08:26:54;;;;;;;18.17;13.52;;;;;;;;;;5094774;28;20210;-64
2023/03/07 08:29:23;;;;;;;19.00;13.90;;;;;;;;;;5094084;28;20257;-66
2023/03/07 08:31:52;;;;;;;18.67;12.60;;;;;;;;;;5094817;28;20274;-64
2023/03/07 08:34:19;;;;;;;15.23;11.30;;;;;;;;;;5094808;28;20244;-64
2023/03/07 08:36:51;;;;;;;20.67;11.57;;;;;;;;;;5094697;28;20195;-69
2023/03/07 08:39:18;;;;;;;18.52;12.80;;;;;;;;;;5094668;28;20236;-64
2023/03/07 08:41:45;;;;;;;19.40;13.57;;;;;;;;;;5094558;28;20213;-63
2023/03/07 08:44:13;;;;;;;17.10;12.77;;;;;;;;;;5094415;28;20229;-78
2023/03/07 08:46:41;;;;;;;17.55;11.57;;;;;;;;;;5094623;28;20222;-66
2023/03/07 08:49:09;;;;;;;14.93;11.27;;;;;;;;;;5094489;28;20647;-67
2023/03/07 08:51:39;;;;;;;17.95;12.52;;;;;;;;;;5093391;28;20569;-67
2023/03/07 08:54:06;;;;;;;15.13;11.68;;;;;;;;;;5094386;28;20192;-68
2023/03/07 08:56:33;;;;;;;15.38;11.18;;;;;;;;;;5094172;28;20187;-66
2023/03/07 08:59:00;;;;;;;14.80;10.57;;;;;;;;;;5094158;28;20660;-65
2023/03/07 09:01:27;;;;;;;13.85;10.57;;;;;;;;;;5094047;28;20220;-64
2023/03/07 09:03:55;;;;;;;15.43;11.40;;;;;;;;;;5093634;28;20192;-70
2023/03/07 09:06:23;;;;;;;15.88;11.52;;;;;;;;;;5093717;28;20242;-69
2023/03/07 09:08:50;;;;;;;18.25;12.02;;;;;;;;;;5094233;28;20524;-65
2023/03/07 09:11:20;;;;;;;14.13;10.10;;;;;;;;;;5093814;28;20233;-69
2023/03/07 09:13:47;;;;;;;14.30;10.02;;;;;;;;;;5093814;28;20711;-64
2023/03/07 09:16:14;;;;;;;14.88;10.93;;;;;;;;;;5093711;28;20224;-66
2023/03/07 09:18:43;;;;;;;12.73;9.75;;;;;;;;;;5093955;28;20626;-65
2023/03/07 09:21:12;;;;;;;13.75;9.98;;;;;;;;;;5093756;28;20267;-73
2023/03/07 09:23:39;;;;;;;12.60;9.93;;;;;;;;;;5093565;28;20191;-71
2023/03/07 09:26:06;;;;;;;13.30;8.88;;;;;;;;;;5093615;28;20191;-68
2023/03/07 09:28:33;;;;;;;13.70;9.18;;;;;;;;;;5093479;28;20199;-66
2023/03/07 09:31:00;;;;;;;13.02;10.20;;;;;;;;;;5093318;28;20452;-65
2023/03/07 09:33:28;;;;;;;13.32;9.48;;;;;;;;;;5093604;28;20449;-67
2023/03/07 09:35:55;;;;;;;9.90;8.68;;;;;;;;;;5093455;28;20282;-65
2023/03/07 09:38:23;;;;;;;11.10;10.00;;;;;;;;;;5092435;28;20453;-65
2023/03/07 09:40:51;;;;;;;9.00;8.10;;;;;;;;;;5093555;28;20262;-64
2023/03/07 09:43:20;;;;;;;8.65;7.68;;;;;;;;;;5093553;28;20198;-65
2023/03/07 09:45:52;;;;;;;10.40;8.90;;;;;;;;;;5093269;28;20725;-65
2023/03/07 09:48:34;;;;;;;10.20;9.00;;;;;;;;;;5093380;28;20246;-66
2023/03/07 09:51:03;;;;;;;11.82;8.48;;;;;;;;;;5090963;28;20202;-65
2023/03/07 09:53:36;;;;;;;8.90;7.80;;;;;;;;;;5093420;28;20640;-64
2023/03/07 09:56:05;;;;;;;9.43;7.40;;;;;;;;;;5093367;28;20198;-65
2023/03/07 09:58:32;;;;;;;10.02;8.30;;;;;;;;;;5093334;28;20192;-66
2023/03/07 10:01:00;;;;;;;9.55;8.32;;;;;;;;;;5093058;28;20239;-65
2023/03/07 10:03:32;;;;;;;8.85;7.85;;;;;;;;;;5092780;28;20189;-65
2023/03/07 10:06:03;;;;;;;7.70;6.97;;;;;;;;;;5093263;28;20192;-65
2023/03/07 10:08:32;;;;;;;7.75;6.95;;;;;;;;;;5093249;28;20454;-65
2023/03/07 10:11:03;;;;;;;9.40;7.93;;;;;;;;;;5093005;28;20204;-65
2023/03/07 10:13:37;;;;;;;6.83;6.13;;;;;;;;;;5092991;28;20446;-65
2023/03/07 10:16:10;;;;;;;9.38;7.22;;;;;;;;;;5092782;28;20474;-65
2023/03/07 10:18:42;;;;;;;7.50;6.80;;;;;;;;;;5093096;28;20193;-66
2023/03/07 10:21:14;;;;;;;7.00;6.30;;;;;;;;;;5092941;28;20470;-65
2023/03/07 10:23:53;;;;;;;7.55;6.03;;;;;;;;;;5092883;28;20275;-65
2023/03/07 10:26:23;;;;;;;7.82;7.03;;;;;;;;;;5092823;28;20236;-66
2023/03/07 10:28:51;;;;;;;7.00;5.80;;;;;;;;;;5093096;28;20715;-65
2023/03/07 10:31:21;;;;;;;8.60;7.80;;;;;;;;;;5092760;28;21022;-65
2023/03/07 10:33:49;;;;;;;7.45;6.75;;;;;;;;;;5092876;28;21036;-65
2023/03/07 10:36:22;;;;;;;6.73;6.13;;;;;;;;;;5092854;28;20192;-65
2023/03/07 10:38:54;;;;;;;8.80;8.00;;;;;;;;;;5092636;28;20486;-64
2023/03/07 10:41:23;;;;;;;7.60;6.73;;;;;;;;;;5092852;28;20541;-65
2023/03/07 10:43:51;;;;;;;8.45;6.80;;;;;;;;;;5092537;28;20944;-65
2023/03/07 10:46:19;;;;;;;8.70;6.63;;;;;;;;;;5092777;28;20224;-65
2023/03/07 10:48:48;;;;;;;7.60;6.83;;;;;;;;;;5092748;28;20482;-65
2023/03/07 10:51:25;;;;;;;8.10;7.27;;;;;;;;;;5092623;28;20823;-65
2023/03/07 10:53:53;;;;;;;10.43;8.25;;;;;;;;;;5092496;28;20482;-65
2023/03/07 10:56:19;;;;;;;7.97;7.17;;;;;;;;;;5092793;28;20220;-66
2023/03/07 10:59:01;;;;;;;8.43;7.15;;;;;;;;;;5092704;28;20473;-65
2023/03/07 11:01:28;;;;;;;7.90;7.10;;;;;;;;;;5092338;28;20226;-65
2023/03/07 11:03:58;;;;;;;10.13;8.30;;;;;;;;;;5092539;28;20451;-65
2023/03/07 11:06:39;;;;;;;9.70;7.97;;;;;;;;;;5092649;28;20215;-66
2023/03/07 11:09:10;;;;;;;8.85;7.95;;;;;;;;;;5092514;28;20513;-65
2023/03/07 11:11:38;;;;;;;8.00;7.20;;;;;;;;;;5092290;28;20674;-65
2023/03/07 11:14:08;;;;;;;9.77;8.13;;;;;;;;;;5092578;28;20482;-64
2023/03/07 11:16:40;;;;;;;8.20;7.30;;;;;;;;;;5096161;28;20490;-68
2023/03/07 11:19:24;;;;;;;7.87;7.00;;;;;;;;;;5096442;28;20215;-63
2023/03/07 11:21:53;;;;;;;8.50;6.47;;;;;;;;;;5096082;28;20478;-63
2023/03/07 11:24:23;;;;;;;8.43;7.57;;;;;;;;;;5096011;28;20443;-63
2023/03/07 11:26:53;;;;;;;8.80;7.90;;;;;;;;;;5096108;28;20537;-69
2023/03/07 11:29:23;;;;;;;6.67;5.90;;;;;;;;;;5095971;28;20203;-71
2023/03/07 11:31:53;;;;;;;8.43;6.93;;;;;;;;;;5095833;28;20484;-61
2023/03/07 11:34:26;;;;;;;7.30;6.60;;;;;;;;;;5095868;28;20479;-63
2023/03/07 11:36:56;;;;;;;5.43;4.93;;;;;;;;;;5095743;28;20451;-67
2023/03/07 11:39:28;;;;;;;5.30;4.80;;;;;;;;;;5096023;28;20537;-71
2023/03/07 11:42:02;;;;;;;5.90;5.40;;;;;;;;;;5095871;28;20564;-74
2023/03/07 11:44:34;;;;;;;7.95;5.80;;;;;;;;;;5095537;28;20442;-66
2023/03/07 11:47:14;;;;;;;5.23;4.73;;;;;;;;;;5095752;28;20219;-64
2023/03/07 11:49:45;;;;;;;5.72;4.85;;;;;;;;;;5095483;28;20507;-75
2023/03/07 11:52:27;;;;;;;4.70;4.23;;;;;;;;;;5095494;28;20189;-74
2023/03/07 11:55:02;;;;;;;4.85;4.45;;;;;;;;;;5093299;28;20519;-68
2023/03/07 11:57:38;;;;;;;5.43;4.93;;;;;;;;;;5095329;28;20192;-66
2023/03/07 12:00:18;;;;;;;4.30;3.88;;;;;;;;;;5095297;28;20193;-69
2023/03/07 12:02:56;;;;;;;4.60;4.20;;;;;;;;;;5095423;28;20310;-69
2023/03/07 12:05:33;;;;;;;3.72;3.33;;;;;;;;;;5095527;28;20242;-65
2023/03/07 12:08:13;;;;;;;4.83;4.43;;;;;;;;;;5095164;28;20647;-68
2023/03/07 12:10:45;;;;;;;3.70;3.40;;;;;;;;;;5095022;28;20937;-64
2023/03/07 12:13:19;;;;;;;4.17;3.77;;;;;;;;;;5095071;28;20197;-62
2023/03/07 12:15:52;;;;;;;6.27;4.50;;;;;;;;;;5094837;28;20452;-64
2023/03/07 12:18:31;;;;;;;4.67;4.10;;;;;;;;;;5094946;28;20532;-62
2023/03/07 12:21:03;;;;;;;4.72;4.32;;;;;;;;;;5094944;28;20956;-65
2023/03/07 12:23:36;;;;;;;4.50;4.10;;;;;;;;;;5094698;28;20212;-63
2023/03/07 12:26:04;;;;;;;4.55;4.15;;;;;;;;;;5094953;28;20481;-67
2023/03/07 12:28:34;;;;;;;4.10;3.70;;;;;;;;;;5094805;28;20216;-65
2023/03/07 12:31:08;;;;;;;4.70;4.33;;;;;;;;;;5094606;28;20224;-66
2023/03/07 12:33:43;;;;;;;4.03;3.70;;;;;;;;;;5094913;28;20541;-62
2023/03/07 12:36:13;;;;;;;4.33;3.97;;;;;;;;;;5094768;28;21026;-66
2023/03/07 12:38:44;;;;;;;4.15;3.75;;;;;;;;;;5094599;28;20451;-70
2023/03/07 12:41:17;;;;;;;3.60;3.30;;;;;;;;;;5094381;28;20199;-66
2023/03/07 12:43:46;;;;;;;4.18;3.50;;;;;;;;;;5094522;28;20224;-66
2023/03/07 12:46:18;;;;;;;5.53;4.10;;;;;;;;;;5094571;28;20196;-70
2023/03/07 12:48:49;;;;;;;4.63;4.23;;;;;;;;;;5094195;28;20451;-73
2023/03/07 12:51:20;;;;;;;4.45;4.05;;;;;;;;;;5094410;28;20501;-64
2023/03/07 12:53:50;;;;;;;6.10;4.45;;;;;;;;;;5094233;28;20197;-63
2023/03/07 12:56:20;;;;;;;4.30;3.90;;;;;;;;;;5094128;28;20283;-70
2023/03/07 12:58:51;;;;;;;3.25;3.05;;;;;;;;;;5094376;28;20537;-69
2023/03/07 13:01:21;;;;;;;3.47;3.17;;;;;;;;;;5094155;28;20656;-69
2023/03/07 13:03:52;;;;;;;3.20;2.70;;;;;;;;;;5094259;28;20486;-72
2023/03/07 13:06:20;;;;;;;2.77;2.57;;;;;;;;;;5094142;28;20451;-66
2023/03/07 13:08:48;;;;;;;3.33;3.13;;;;;;;;;;5094130;28;20520;-66
2023/03/07 13:11:18;;;;;;;2.33;2.13;;;;;;;;;;5094090;28;20206;-68
2023/03/07 13:13:50;;;;;;;3.90;3.60;;;;;;;;;;5094012;28;20809;-69
2023/03/07 13:19:44;;;;;;;4.80;3.40;;;;;;;;;;5131239;27;20537;-68
2023/03/07 13:22:30;;;;;;;3.15;2.85;;;;;;;;;;5088247;28;20620;-68
2023/03/07 13:25:18;;;;;;;4.22;2.00;;;;;;;;;;5088195;28;20185;-72
2023/03/07 13:27:46;;;;;;;2.83;2.63;;;;;;;;;;5118923;27;20654;-71
2023/03/07 13:30:18;;;;;;;3.03;1.70;;;;;;;;;;5131188;27;20445;-70
2023/03/07 13:32:59;;;;;;;2.90;2.50;;;;;;;;;;5130949;27;20473;-65
2023/03/07 13:35:46;;;;;;;2.90;2.30;;;;;;;;;;5130676;27;20190;-68
2023/03/07 13:38:31;;;;;;;1.90;1.77;;;;;;;;;;5131121;27;20223;-69
2023/03/07 13:40:59;;;;;;;1.95;1.60;;;;;;;;;;5131115;27;20601;-65
2023/03/07 13:43:50;;;;;;;2.00;1.40;;;;;;;;;;5131009;27;20658;-65
2023/03/07 13:49:40;;;;;;;2.53;2.00;;;;;;;;;;5125005;27;20187;-64
2023/03/07 13:52:22;;;;;;;2.00;1.80;;;;;;;;;;5130726;27;20195;-70
2023/03/07 13:54:50;;;;;;;2.30;1.63;;;;;;;;;;5130635;27;20192;-66
2023/03/07 13:57:20;;;;;;;3.60;1.90;;;;;;;;;;5130786;27;20566;-68
2023/03/07 13:59:48;;;;;;;2.58;1.75;;;;;;;;;;5131024;27;20535;-71
2023/03/07 14:02:17;;;;;;;6.43;3.10;;;;;;;;;;5130639;27;20188;-63
2023/03/07 14:04:45;;;;;;;5.30;4.80;;;;;;;;;;5130964;27;20719;-65
2023/03/07 14:07:15;;;;;;;7.13;6.45;;;;;;;;;;5130512;27;20233;-63
2023/03/07 14:09:44;;;;;;;10.40;9.30;;;;;;;;;;5129505;27;20450;-63
2023/03/07 14:12:16;;;;;;;5.60;5.20;;;;;;;;;;5130338;27;20230;-65
2023/03/07 14:14:51;;;;;;;4.17;3.77;;;;;;;;;;5130218;27;20448;-68
2023/03/07 14:17:24;;;;;;;5.40;3.67;;;;;;;;;;5129877;27;20480;-62
2023/03/07 14:19:54;;;;;;;5.00;2.45;;;;;;;;;;5129988;27;20445;-63
2023/03/07 14:22:27;;;;;;;2.30;2.20;;;;;;;;;;5130042;27;20207;-63
2023/03/07 14:24:58;;;;;;;2.30;2.10;;;;;;;;;;5117382;27;20220;-63
2023/03/07 14:27:25;;;;;;;2.35;1.92;;;;;;;;;;5109570;28;20199;-63
2023/03/07 14:29:55;;;;;;;1.95;1.85;;;;;;;;;;5099425;28;20197;-63
2023/03/07 14:32:24;;;;;;;2.60;2.30;;;;;;;;;;5095298;28;20871;-66
2023/03/07 14:34:52;;;;;;;2.08;1.98;;;;;;;;;;5095932;28;20247;-66
2023/03/07 14:37:21;;;;;;;2.92;2.72;;;;;;;;;;5095999;28;20280;-66
2023/03/07 14:39:54;;;;;;;3.67;3.38;;;;;;;;;;5095860;28;20224;-66
2023/03/07 14:42:24;;;;;;;3.90;3.60;;;;;;;;;;5095739;28;20567;-66
2023/03/07 14:45:01;;;;;;;4.00;3.60;;;;;;;;;;5095669;28;20197;-66
2023/03/07 14:47:33;;;;;;;1.95;1.83;;;;;;;;;;5095609;28;20700;-66